Flugplatz Attendorn-Finnentrop

Für EDKU sind keine METAR/TAF Berichte vorhanden.
Es werden die Flugwettermeldungen vom Flugplatz Dortmund in 47 km Entfernung angezeigt.

Bericht für EDLW

vom 07.03. um 02:20 UTC

Wind 5 kt aus 160°

Sichtweite 10 km oder mehr

keine Wolken

Temperatur -2.0°C

Taupunkt -4.0°C

Luftfeuchtigkeit 86%

Luftdruck 1027 hPa

EDLW 070220Z AUTO 16005KT 9999 // NCD M02/M04 Q1027

Prognose für EDLW

vom 06.03. um 17:00 UTC

Am 06.03. zwischen 18:00 UTC und 21:00 UTC

Wind 3 kt aus 40°

Sichtweite 10 km oder mehr

aufgelockert bewölkt in 4000 ft


Am 06.03. zwischen 21:00 und 00:00 UTC übergehend zu

Wind 5 kt aus 150°

Sichtweite 10 km oder mehr

aufgelockert bewölkt in 4000 ft


Zwischen 09:00 und 12:00 UTC übergehend zu

Wind 4 kt aus 360°

Sichtweite 10 km oder mehr

aufgelockert bewölkt in 4000 ft

TAF EDLW 061700Z 0618/0718 04003KT 9999 SCT040 BECMG 0621/0624 15005KT BECMG 0709/0712 36004KT
Impressum